createdAt,value
2018-01-22T00:02:05.565Z,2.80
2018-01-22T00:04:31.786Z,2.80
2018-01-22T00:06:58.099Z,2.80
2018-01-22T00:09:24.323Z,2.80
2018-01-22T00:11:50.514Z,2.90
2018-01-22T00:14:17.096Z,2.90
2018-01-22T00:16:43.331Z,2.90
2018-01-22T00:19:09.638Z,2.80
2018-01-22T00:21:35.875Z,2.90
2018-01-22T00:24:02.112Z,3.00
2018-01-22T00:26:28.356Z,3.00
2018-01-22T00:28:54.640Z,3.10
2018-01-22T00:31:20.832Z,3.10
2018-01-22T00:33:47.101Z,3.10
2018-01-22T00:36:13.322Z,3.10
2018-01-22T00:38:39.555Z,3.10
2018-01-22T00:41:05.775Z,3.00
2018-01-22T00:43:32.017Z,3.00
2018-01-22T00:45:58.246Z,3.00
2018-01-22T00:48:24.481Z,3.00
2018-01-22T00:50:50.696Z,2.90
2018-01-22T00:53:16.923Z,2.80
2018-01-22T00:55:43.102Z,2.80
2018-01-22T00:58:09.308Z,2.80
2018-01-22T01:00:35.566Z,2.90
2018-01-22T01:03:02.226Z,3.00
2018-01-22T01:05:28.473Z,3.00
2018-01-22T01:07:54.690Z,2.90
2018-01-22T01:10:20.950Z,2.80
2018-01-22T01:12:47.165Z,2.80
2018-01-22T01:15:13.385Z,2.90
2018-01-22T01:17:39.590Z,2.90
2018-01-22T01:20:06.179Z,3.00
2018-01-22T01:22:32.429Z,3.00
2018-01-22T01:24:58.642Z,3.00
2018-01-22T01:27:24.869Z,3.00
2018-01-22T01:29:51.110Z,3.00
2018-01-22T01:32:17.639Z,3.10
2018-01-22T01:34:43.830Z,3.10
2018-01-22T01:37:10.061Z,3.20
2018-01-22T01:39:36.307Z,3.30
2018-01-22T01:42:03.428Z,3.30
2018-01-22T01:44:29.687Z,3.20
2018-01-22T01:46:55.942Z,3.30
2018-01-22T01:49:22.187Z,3.30
2018-01-22T01:51:48.413Z,3.30
2018-01-22T01:54:14.671Z,3.40
2018-01-22T01:56:40.869Z,3.40
2018-01-22T01:59:07.082Z,3.40
2018-01-22T02:01:33.324Z,3.30
2018-01-22T02:03:59.591Z,3.30
2018-01-22T02:06:25.832Z,3.40
2018-01-22T02:08:52.064Z,3.50
2018-01-22T02:11:18.297Z,3.50
2018-01-22T02:13:44.517Z,3.50
2018-01-22T02:16:10.747Z,3.60
2018-01-22T02:18:36.970Z,3.70
2018-01-22T02:21:03.228Z,3.70
2018-01-22T02:23:29.992Z,3.60
2018-01-22T02:25:56.600Z,3.60
2018-01-22T02:28:22.815Z,3.60
2018-01-22T02:30:49.029Z,3.50
2018-01-22T02:33:15.272Z,3.50
2018-01-22T02:35:41.541Z,3.50
2018-01-22T02:38:07.781Z,3.50
2018-01-22T02:40:33.986Z,3.50
2018-01-22T02:43:00.201Z,3.50
2018-01-22T02:45:26.416Z,3.50
2018-01-22T02:47:52.661Z,3.50
2018-01-22T02:50:18.913Z,3.50
2018-01-22T02:52:45.208Z,3.50
2018-01-22T02:55:11.824Z,3.60
2018-01-22T02:57:38.048Z,3.60
2018-01-22T03:00:04.336Z,3.40
2018-01-22T03:02:30.938Z,3.50
2018-01-22T03:04:57.183Z,3.50
2018-01-22T03:07:23.407Z,3.50
2018-01-22T03:09:49.657Z,3.60
2018-01-22T03:12:16.252Z,3.60
2018-01-22T03:14:42.480Z,3.60
2018-01-22T03:17:08.890Z,3.60
2018-01-22T03:19:42.007Z,3.50
2018-01-22T03:22:08.269Z,3.50
2018-01-22T03:24:34.509Z,3.60
2018-01-22T03:27:00.720Z,3.60
2018-01-22T03:29:26.957Z,3.60
2018-01-22T03:31:53.180Z,3.60
2018-01-22T03:34:19.397Z,3.60
2018-01-22T03:36:46.185Z,3.70
2018-01-22T03:39:12.385Z,3.70
2018-01-22T03:41:38.995Z,3.70
2018-01-22T03:44:05.233Z,3.70
2018-01-22T03:46:31.477Z,3.80
2018-01-22T03:48:58.097Z,3.70
2018-01-22T03:51:24.350Z,3.70
2018-01-22T03:53:50.598Z,3.70
2018-01-22T03:56:16.803Z,3.70
2018-01-22T03:58:43.027Z,3.70
2018-01-22T04:01:09.624Z,3.80
2018-01-22T04:03:35.871Z,3.80
2018-01-22T04:06:02.061Z,3.70
2018-01-22T04:08:28.312Z,3.80
2018-01-22T04:10:54.543Z,3.90
2018-01-22T04:13:20.746Z,3.80
2018-01-22T04:15:46.978Z,3.70
2018-01-22T04:18:13.788Z,3.80
2018-01-22T04:20:40.029Z,3.90
2018-01-22T04:23:06.285Z,3.80
2018-01-22T04:25:32.531Z,3.80
2018-01-22T04:27:58.726Z,3.80
2018-01-22T04:30:24.991Z,3.80
2018-01-22T04:32:51.220Z,3.80
2018-01-22T04:35:17.883Z,3.80
2018-01-22T04:37:44.134Z,3.80
2018-01-22T04:40:10.355Z,3.80
2018-01-22T04:42:36.564Z,3.80
2018-01-22T04:45:02.796Z,3.80
2018-01-22T04:47:29.377Z,3.90
2018-01-22T04:49:55.654Z,3.90
2018-01-22T04:52:22.236Z,3.80
2018-01-22T04:54:48.468Z,3.80
2018-01-22T04:57:14.783Z,3.90
2018-01-22T04:59:41.023Z,3.90
2018-01-22T05:02:07.199Z,4.00
2018-01-22T05:04:33.820Z,3.90
2018-01-22T05:07:00.060Z,3.90
2018-01-22T05:09:26.665Z,3.90
2018-01-22T05:11:52.880Z,3.90
2018-01-22T05:14:19.096Z,3.90
2018-01-22T05:16:46.649Z,3.80
2018-01-22T05:19:12.895Z,3.80
2018-01-22T05:21:39.119Z,3.80
2018-01-22T05:24:05.377Z,3.90
2018-01-22T05:26:31.613Z,3.90
2018-01-22T05:28:57.834Z,3.90
2018-01-22T05:31:24.044Z,3.80
2018-01-22T05:33:50.268Z,3.80
2018-01-22T05:36:16.476Z,3.90
2018-01-22T05:38:42.748Z,3.90
2018-01-22T05:41:08.939Z,3.90
2018-01-22T05:43:35.172Z,3.90
2018-01-22T05:46:01.399Z,4.00
2018-01-22T05:48:27.623Z,4.10
2018-01-22T05:50:53.902Z,4.10
2018-01-22T05:53:20.768Z,4.10
2018-01-22T05:55:47.047Z,4.10
2018-01-22T05:58:13.266Z,4.10
2018-01-22T06:00:39.918Z,4.20
2018-01-22T06:03:06.108Z,4.20
2018-01-22T06:05:32.308Z,4.10
2018-01-22T06:07:58.565Z,4.00
2018-01-22T06:10:24.826Z,4.00
2018-01-22T06:12:51.107Z,4.10
2018-01-22T06:15:17.371Z,4.00
2018-01-22T06:17:43.661Z,4.10
2018-01-22T06:20:09.907Z,4.10
2018-01-22T06:22:36.204Z,4.10
2018-01-22T06:25:02.792Z,4.20
2018-01-22T06:27:29.014Z,4.20
2018-01-22T06:29:55.248Z,4.20
2018-01-22T06:32:21.432Z,4.20
2018-01-22T06:34:47.661Z,4.30
2018-01-22T06:37:13.865Z,4.10
2018-01-22T06:39:40.106Z,4.20
2018-01-22T06:42:06.341Z,4.20
2018-01-22T06:44:32.541Z,4.20
2018-01-22T06:46:59.064Z,4.20
2018-01-22T06:49:25.279Z,4.30
2018-01-22T06:51:52.544Z,4.30
2018-01-22T06:54:18.754Z,4.40
2018-01-22T06:56:45.007Z,4.40
2018-01-22T06:59:11.585Z,4.40
2018-01-22T07:01:37.790Z,4.40
2018-01-22T07:04:03.987Z,4.30
2018-01-22T07:06:30.173Z,4.20
2018-01-22T07:08:56.420Z,4.30
2018-01-22T07:11:22.625Z,4.30
2018-01-22T07:13:48.842Z,4.30
2018-01-22T07:16:15.416Z,4.40
2018-01-22T07:18:41.657Z,4.40
2018-01-22T07:21:07.901Z,4.40
2018-01-22T07:23:34.095Z,4.30
2018-01-22T07:26:00.343Z,4.30
2018-01-22T07:28:26.536Z,4.40
2018-01-22T07:30:52.764Z,4.40
2018-01-22T07:33:18.959Z,4.50
2018-01-22T07:35:45.171Z,4.60
2018-01-22T07:38:11.407Z,4.60
2018-01-22T07:40:37.637Z,4.60
2018-01-22T07:43:03.885Z,4.60
2018-01-22T07:45:30.073Z,4.50
2018-01-22T07:47:56.385Z,4.60
2018-01-22T07:50:22.610Z,4.60
2018-01-22T07:52:48.838Z,4.70
2018-01-22T07:55:15.067Z,4.70
2018-01-22T07:57:41.315Z,4.80
2018-01-22T08:00:08.672Z,4.80
2018-01-22T08:02:34.888Z,4.70
2018-01-22T08:05:01.121Z,4.70
2018-01-22T08:07:27.337Z,4.70
2018-01-22T08:09:53.545Z,4.80
2018-01-22T08:12:19.847Z,4.80
2018-01-22T08:14:46.059Z,4.80
2018-01-22T08:17:12.308Z,4.90
2018-01-22T08:19:38.522Z,4.80
2018-01-22T08:22:04.770Z,4.90
2018-01-22T08:24:31.019Z,4.80
2018-01-22T08:26:57.250Z,4.90
2018-01-22T08:29:23.461Z,4.70
2018-01-22T08:31:49.683Z,4.80
2018-01-22T08:34:15.910Z,4.80
2018-01-22T08:36:42.135Z,5.00
2018-01-22T08:39:08.373Z,5.10
2018-01-22T08:41:34.587Z,5.20
2018-01-22T08:44:00.824Z,5.20
2018-01-22T08:46:27.022Z,5.20
2018-01-22T08:48:53.227Z,5.30
2018-01-22T08:51:19.449Z,5.20
2018-01-22T08:53:45.786Z,5.20
2018-01-22T08:56:12.804Z,5.10
2018-01-22T08:58:39.060Z,5.20
2018-01-22T09:01:05.362Z,5.40
2018-01-22T09:03:31.693Z,5.50
2018-01-22T09:05:57.920Z,5.50
2018-01-22T09:08:24.159Z,5.40
2018-01-22T09:10:50.424Z,5.40
2018-01-22T09:13:16.667Z,5.40
2018-01-22T09:15:43.233Z,5.70
2018-01-22T09:18:09.512Z,5.70
2018-01-22T09:20:35.752Z,5.80
2018-01-22T09:23:02.382Z,5.90
2018-01-22T09:25:28.996Z,6.00
2018-01-22T09:27:55.231Z,6.00
2018-01-22T09:30:21.833Z,6.20
2018-01-22T09:32:48.057Z,6.20
2018-01-22T09:35:14.303Z,6.20
2018-01-22T09:37:40.514Z,6.10
2018-01-22T09:40:06.746Z,6.10
2018-01-22T09:42:32.991Z,6.10
2018-01-22T09:44:59.255Z,6.10
2018-01-22T09:47:25.893Z,6.30
2018-01-22T09:49:52.575Z,6.30
2018-01-22T09:52:18.787Z,6.30
2018-01-22T09:54:45.006Z,6.30
2018-01-22T09:57:11.590Z,6.10
2018-01-22T09:59:37.860Z,6.10
2018-01-22T10:02:04.452Z,6.20
2018-01-22T10:04:30.656Z,6.20
2018-01-22T10:06:56.897Z,6.30
2018-01-22T10:09:23.164Z,6.20
2018-01-22T10:11:49.851Z,6.20
2018-01-22T10:14:16.085Z,6.20
2018-01-22T10:16:42.455Z,6.30
2018-01-22T10:19:08.807Z,6.30
2018-01-22T10:21:35.171Z,6.30
2018-01-22T10:24:01.448Z,6.40
2018-01-22T10:26:28.551Z,6.40
2018-01-22T10:28:54.743Z,6.40
2018-01-22T10:31:21.325Z,6.50
2018-01-22T10:33:47.612Z,6.60
2018-01-22T10:36:13.870Z,6.70
2018-01-22T10:38:40.121Z,6.90
2018-01-22T10:41:06.341Z,7.10
2018-01-22T10:43:32.543Z,7.30
2018-01-22T10:45:58.806Z,7.20
2018-01-22T10:48:25.038Z,7.30
2018-01-22T10:50:51.385Z,7.40
2018-01-22T10:53:17.631Z,7.40
2018-01-22T10:55:43.869Z,7.50
2018-01-22T10:58:10.134Z,7.50
2018-01-22T11:00:36.425Z,7.40
2018-01-22T11:03:03.024Z,7.20
2018-01-22T11:05:29.318Z,7.20
2018-01-22T11:07:55.550Z,7.30
2018-01-22T11:10:21.773Z,7.20
2018-01-22T11:12:48.017Z,7.10
2018-01-22T11:15:14.261Z,7.20
2018-01-22T11:17:40.529Z,7.10
2018-01-22T11:20:06.748Z,7.10
2018-01-22T11:22:33.078Z,7.10
2018-01-22T11:24:59.309Z,7.00
2018-01-22T11:27:25.888Z,7.00
2018-01-22T11:29:52.198Z,7.00
2018-01-22T11:32:18.519Z,7.00
2018-01-22T11:34:45.125Z,7.40
2018-01-22T11:37:11.351Z,7.40
2018-01-22T11:39:37.597Z,7.50
2018-01-22T11:42:03.812Z,7.50
2018-01-22T11:44:30.027Z,7.40
2018-01-22T11:46:56.279Z,7.20
2018-01-22T11:49:22.507Z,7.20
2018-01-22T11:51:49.372Z,7.30
2018-01-22T11:54:15.610Z,7.20
2018-01-22T11:56:41.884Z,7.20
2018-01-22T11:59:08.464Z,7.40
2018-01-22T12:01:34.865Z,7.40
2018-01-22T12:04:01.130Z,7.40
2018-01-22T12:06:27.370Z,7.40
2018-01-22T12:08:53.613Z,7.40
2018-01-22T12:11:19.801Z,7.40
2018-01-22T12:13:46.061Z,7.40
2018-01-22T12:16:12.284Z,7.40
2018-01-22T12:18:38.543Z,7.50
2018-01-22T12:21:04.843Z,7.70
2018-01-22T12:23:31.226Z,7.70
2018-01-22T12:25:58.364Z,7.70
2018-01-22T12:28:24.657Z,7.50
2018-01-22T12:30:50.921Z,7.70
2018-01-22T12:33:17.135Z,7.70
2018-01-22T12:35:43.395Z,7.50
2018-01-22T12:38:09.616Z,7.50
2018-01-22T12:40:35.876Z,7.50
2018-01-22T12:43:02.077Z,7.60
2018-01-22T12:45:28.300Z,7.60
2018-01-22T12:47:54.562Z,7.60
2018-01-22T12:50:20.824Z,7.60
2018-01-22T12:52:47.041Z,7.70
2018-01-22T12:55:13.259Z,7.90
2018-01-22T12:57:39.612Z,8.10
2018-01-22T13:00:05.877Z,8.20
2018-01-22T13:02:32.082Z,8.00
2018-01-22T13:04:58.293Z,7.90
2018-01-22T13:07:24.509Z,7.90
2018-01-22T13:09:50.756Z,8.00
2018-01-22T13:12:17.043Z,8.00
2018-01-22T13:14:44.878Z,8.10
2018-01-22T13:17:11.158Z,8.10
2018-01-22T13:19:37.418Z,8.10
2018-01-22T13:22:03.635Z,8.10
2018-01-22T13:24:30.571Z,8.20
2018-01-22T13:26:56.932Z,8.30
2018-01-22T13:29:23.197Z,8.30
2018-01-22T13:31:49.796Z,8.50
2018-01-22T13:34:16.070Z,8.50
2018-01-22T13:36:42.304Z,8.60
2018-01-22T13:39:08.541Z,8.50
2018-01-22T13:41:34.806Z,8.40
2018-01-22T13:44:01.753Z,8.50
2018-01-22T13:46:28.030Z,8.50
2018-01-22T13:48:54.297Z,8.30
2018-01-22T13:51:20.503Z,8.30
2018-01-22T13:53:46.778Z,8.50
2018-01-22T13:56:13.001Z,8.60
2018-01-22T13:58:39.242Z,8.60
2018-01-22T14:01:05.495Z,8.60
2018-01-22T14:03:31.740Z,8.70
2018-01-22T14:05:57.989Z,8.70
2018-01-22T14:08:24.240Z,8.60
2018-01-22T14:10:50.475Z,8.60
2018-01-22T14:13:16.770Z,8.60
2018-01-22T14:15:43.255Z,8.70
2018-01-22T14:18:09.491Z,8.70
2018-01-22T14:20:36.138Z,8.70
2018-01-22T14:23:02.448Z,8.70
2018-01-22T14:25:29.037Z,8.90
2018-01-22T14:27:55.290Z,8.90
2018-01-22T14:30:21.600Z,9.00
2018-01-22T14:32:47.816Z,9.00
2018-01-22T14:35:14.050Z,9.10
2018-01-22T14:37:40.382Z,9.10
2018-01-22T14:40:06.629Z,9.20
2018-01-22T14:42:32.885Z,9.10
2018-01-22T14:44:59.533Z,9.10
2018-01-22T14:47:26.233Z,9.10
2018-01-22T14:49:52.580Z,9.10
2018-01-22T14:52:18.903Z,9.10
2018-01-22T14:54:45.117Z,9.00
2018-01-22T14:57:11.397Z,9.00
2018-01-22T14:59:38.045Z,8.90
2018-01-22T15:02:04.314Z,8.90
2018-01-22T15:04:30.533Z,8.90
2018-01-22T15:06:56.769Z,8.90
2018-01-22T15:09:22.999Z,8.90
2018-01-22T15:11:49.379Z,8.90
2018-01-22T15:14:16.005Z,8.90
2018-01-22T15:16:42.613Z,8.90
2018-01-22T15:19:08.868Z,8.90
2018-01-22T15:21:35.464Z,8.70
2018-01-22T15:24:01.744Z,8.70
2018-01-22T15:26:28.342Z,8.60
2018-01-22T15:28:54.600Z,8.60
2018-01-22T15:31:20.830Z,8.60
2018-01-22T15:33:47.467Z,8.80
2018-01-22T15:36:14.138Z,8.80
2018-01-22T15:38:40.376Z,8.80
2018-01-22T15:41:06.676Z,8.70
2018-01-22T15:43:32.911Z,8.70
2018-01-22T15:45:59.137Z,8.70
2018-01-22T15:48:25.394Z,8.70
2018-01-22T15:50:51.654Z,8.70
2018-01-22T15:53:17.919Z,8.60
2018-01-22T15:55:44.535Z,8.60
2018-01-22T15:58:10.762Z,8.60
2018-01-22T16:00:37.391Z,8.50
2018-01-22T16:03:03.694Z,8.50
2018-01-22T16:05:29.896Z,8.50
2018-01-22T16:07:56.173Z,8.40
2018-01-22T16:10:22.424Z,8.40
2018-01-22T16:12:48.675Z,8.30
2018-01-22T16:15:15.260Z,8.30
2018-01-22T16:17:42.503Z,8.30
2018-01-22T16:20:08.740Z,8.20
2018-01-22T16:22:35.621Z,8.20
2018-01-22T16:25:03.177Z,8.20
2018-01-22T16:27:29.791Z,8.10
2018-01-22T16:29:56.014Z,8.10
2018-01-22T16:32:22.237Z,8.10
2018-01-22T16:34:48.524Z,8.00
2018-01-22T16:37:14.728Z,8.00
2018-01-22T16:39:41.346Z,8.00
2018-01-22T16:42:07.604Z,8.00
2018-01-22T16:44:33.900Z,8.00
2018-01-22T16:47:06.163Z,8.00
2018-01-22T16:49:32.625Z,8.00
2018-01-22T16:51:59.348Z,7.90
2018-01-22T16:54:25.624Z,8.00
2018-01-22T16:56:51.905Z,7.90
2018-01-22T16:59:18.113Z,7.90
2018-01-22T17:01:44.380Z,7.90
2018-01-22T17:04:11.054Z,7.80
2018-01-22T17:06:37.276Z,7.80
2018-01-22T17:09:03.612Z,7.80
2018-01-22T17:11:29.865Z,7.80
2018-01-22T17:13:56.112Z,7.80
2018-01-22T17:16:22.337Z,7.80
2018-01-22T17:18:48.585Z,7.80
2018-01-22T17:21:15.189Z,7.80
2018-01-22T17:23:41.472Z,7.80
2018-01-22T17:26:07.735Z,7.70
2018-01-22T17:28:34.018Z,7.60
2018-01-22T17:31:00.310Z,7.60
2018-01-22T17:33:26.547Z,7.60
2018-01-22T17:35:52.803Z,7.60
2018-01-22T17:38:19.422Z,7.60
2018-01-22T17:40:46.032Z,7.60
2018-01-22T17:43:12.777Z,7.60
2018-01-22T17:45:38.992Z,7.60
2018-01-22T17:48:05.235Z,7.60
2018-01-22T17:50:31.470Z,7.60
2018-01-22T17:52:58.380Z,7.70
2018-01-22T17:55:24.596Z,7.70
2018-01-22T17:57:50.961Z,7.60
2018-01-22T18:00:17.237Z,7.70
2018-01-22T18:02:43.539Z,7.70
2018-01-22T18:05:09.798Z,7.80
2018-01-22T18:07:36.043Z,7.90
2018-01-22T18:10:02.342Z,7.90
2018-01-22T18:12:28.980Z,8.00
2018-01-22T18:14:55.610Z,7.90
2018-01-22T18:17:22.821Z,7.90
2018-01-22T18:19:49.057Z,7.90
2018-01-22T18:22:16.070Z,8.10
2018-01-22T18:24:42.341Z,8.10
2018-01-22T18:27:08.660Z,8.10
2018-01-22T18:29:34.884Z,8.00
2018-01-22T18:32:01.165Z,8.10
2018-01-22T18:34:27.774Z,8.00
2018-01-22T18:36:54.101Z,8.00
2018-01-22T18:39:20.423Z,7.80
2018-01-22T18:41:46.683Z,7.80
2018-01-22T18:44:13.290Z,7.60
2018-01-22T18:46:39.568Z,7.60
2018-01-22T18:49:05.808Z,7.60
2018-01-22T18:51:32.077Z,7.60
2018-01-22T18:53:58.332Z,7.60
2018-01-22T18:56:24.635Z,7.70
2018-01-22T18:58:50.860Z,7.60
2018-01-22T19:01:17.111Z,7.50
2018-01-22T19:03:43.799Z,7.60
2018-01-22T19:06:10.048Z,7.60
2018-01-22T19:08:37.087Z,7.60
2018-01-22T19:11:03.415Z,7.60
2018-01-22T19:13:29.802Z,7.70
2018-01-22T19:15:56.054Z,7.70
2018-01-22T19:18:22.361Z,7.70
2018-01-22T19:20:48.961Z,7.80
2018-01-22T19:23:15.534Z,7.80
2018-01-22T19:25:41.902Z,7.80
2018-01-22T19:28:08.194Z,7.70
2018-01-22T19:30:34.841Z,7.60
2018-01-22T19:33:01.118Z,7.60
2018-01-22T19:35:27.374Z,7.60
2018-01-22T19:37:54.037Z,7.70
2018-01-22T19:40:20.379Z,7.70
2018-01-22T19:42:47.510Z,7.60
2018-01-22T19:45:14.129Z,7.60
2018-01-22T19:47:40.767Z,7.60
2018-01-22T19:50:07.401Z,7.50
2018-01-22T19:52:33.823Z,7.50
2018-01-22T19:55:00.132Z,7.40
2018-01-22T19:57:26.816Z,7.50
2018-01-22T19:59:53.108Z,7.40
2018-01-22T20:02:20.039Z,7.50
2018-01-22T20:04:46.366Z,7.60
2018-01-22T20:07:12.820Z,7.60
2018-01-22T20:09:39.188Z,7.70
2018-01-22T20:12:05.507Z,7.70
2018-01-22T20:14:32.190Z,7.90
2018-01-22T20:16:58.478Z,7.90
2018-01-22T20:19:25.149Z,7.80
2018-01-22T20:21:51.442Z,7.80
2018-01-22T20:24:17.761Z,7.80
2018-01-22T20:26:44.084Z,7.80
2018-01-22T20:29:10.394Z,7.90
2018-01-22T20:31:36.756Z,7.90
2018-01-22T20:34:03.082Z,7.90
2018-01-22T20:36:29.355Z,7.90
2018-01-22T20:38:55.589Z,7.90
2018-01-22T20:41:21.837Z,7.90
2018-01-22T20:43:48.157Z,7.90
2018-01-22T20:46:14.510Z,7.80
2018-01-22T20:48:40.858Z,7.80
2018-01-22T20:51:07.107Z,7.80
2018-01-22T20:53:33.447Z,7.80
2018-01-22T20:56:00.104Z,7.60
2018-01-22T20:58:26.519Z,7.60
2018-01-22T21:00:52.767Z,7.70
2018-01-22T21:03:18.998Z,7.70
2018-01-22T21:05:45.311Z,7.70
2018-01-22T21:08:11.565Z,7.70
2018-01-22T21:10:37.855Z,7.60
2018-01-22T21:13:04.475Z,7.70
2018-01-22T21:15:31.136Z,7.70
2018-01-22T21:17:57.783Z,7.60
2018-01-22T21:20:24.046Z,7.60
2018-01-22T21:22:50.387Z,7.40
2018-01-22T21:25:16.737Z,7.40
2018-01-22T21:27:42.995Z,7.40
2018-01-22T21:30:12.104Z,7.50
2018-01-22T21:32:38.370Z,7.50
2018-01-22T21:35:04.615Z,7.60
2018-01-22T21:37:30.927Z,7.50
2018-01-22T21:39:57.172Z,7.50
2018-01-22T21:42:24.605Z,7.50
2018-01-22T21:44:50.873Z,7.40
2018-01-22T21:47:17.116Z,7.40
2018-01-22T21:49:43.720Z,7.10
2018-01-22T21:52:09.953Z,7.10
2018-01-22T21:54:36.774Z,7.10
2018-01-22T21:57:03.049Z,7.10
2018-01-22T21:59:29.299Z,7.10
2018-01-22T22:01:55.542Z,7.20
2018-01-22T22:04:21.798Z,7.30
2018-01-22T22:06:48.583Z,7.10
2018-01-22T22:09:14.794Z,7.10
2018-01-22T22:11:41.043Z,7.10
2018-01-22T22:14:07.282Z,7.30
2018-01-22T22:16:33.497Z,7.30
2018-01-22T22:18:59.793Z,7.20
2018-01-22T22:21:26.034Z,7.20
2018-01-22T22:23:52.682Z,7.10
2018-01-22T22:26:19.297Z,7.20
2018-01-22T22:28:45.581Z,7.20
2018-01-22T22:31:12.828Z,7.30
2018-01-22T22:33:39.097Z,7.20
2018-01-22T22:36:05.335Z,7.20
2018-01-22T22:38:31.545Z,7.20
2018-01-22T22:40:58.772Z,7.30
2018-01-22T22:43:25.001Z,7.40
2018-01-22T22:45:51.269Z,7.30
2018-01-22T22:48:17.534Z,7.40
2018-01-22T22:50:43.780Z,7.30
2018-01-22T22:53:10.035Z,7.20
2018-01-22T22:55:36.248Z,7.10
2018-01-22T22:58:02.577Z,7.00
2018-01-22T23:00:28.814Z,7.00
2018-01-22T23:02:55.030Z,7.00
2018-01-22T23:05:21.288Z,6.90
2018-01-22T23:07:47.552Z,6.80
2018-01-22T23:10:13.805Z,6.70
2018-01-22T23:12:40.048Z,6.80
2018-01-22T23:15:06.312Z,6.90
2018-01-22T23:17:32.509Z,6.90
2018-01-22T23:19:58.731Z,6.80
2018-01-22T23:22:24.953Z,6.90
2018-01-22T23:24:51.186Z,6.80
2018-01-22T23:27:17.444Z,6.60
2018-01-22T23:29:43.679Z,6.80
2018-01-22T23:32:09.876Z,6.80
2018-01-22T23:34:36.105Z,6.70
2018-01-22T23:37:02.324Z,6.90
2018-01-22T23:39:28.540Z,7.00
2018-01-22T23:41:54.810Z,7.00
2018-01-22T23:44:21.436Z,6.90
2018-01-22T23:46:47.676Z,6.90
2018-01-22T23:49:13.897Z,7.00
2018-01-22T23:51:40.213Z,6.90
2018-01-22T23:54:06.571Z,6.90
2018-01-22T23:56:32.872Z,6.90
2018-01-22T23:58:59.065Z,7.00
